Time;durP1;ratioP1;P1;durP2;ratioP2;P2;SDS_P1;SDS_P2;PMS_P1;PMS_P2;Temp;Humidity;BMP_temperature;BMP_pressure;BME280_temperature;BME280_humidity;BME280_pressure;Samples;Min_cycle;Max_cycle;Signal;HPM_P1;HPM_P2
2023/03/15 00:01:14;;;;;;;8.63;1.13;;;;;;;2.51;94.62;100166.69;5035713;28;20517;-67
2023/03/15 00:03:41;;;;;;;4.80;0.87;;;;;;;2.53;93.92;100174.47;5035827;28;20489;-67
2023/03/15 00:06:08;;;;;;;4.63;0.90;;;;;;;2.45;93.49;100174.94;5035567;28;20450;-68
2023/03/15 00:08:36;;;;;;;7.53;1.23;;;;;;;2.48;93.95;100193.16;5035453;28;20467;-67
2023/03/15 00:11:03;;;;;;;8.70;1.37;;;;;;;2.50;92.12;100186.47;5035635;28;20451;-67
2023/03/15 00:13:31;;;;;;;24.73;2.30;;;;;;;2.50;91.10;100189.16;5035422;28;20501;-67
2023/03/15 00:15:59;;;;;;;8.63;1.50;;;;;;;2.52;91.69;100192.38;5035033;28;20565;-66
2023/03/15 00:18:27;;;;;;;6.40;1.20;;;;;;;2.49;92.20;100190.22;5035277;28;20478;-68
2023/03/15 00:20:54;;;;;;;6.50;1.40;;;;;;;2.47;92.37;100196.88;5035317;28;20824;-65
2023/03/15 00:23:21;;;;;;;5.83;0.93;;;;;;;2.48;92.81;100209.19;5035262;28;20529;-68
2023/03/15 00:25:49;;;;;;;6.40;0.80;;;;;;;2.53;91.67;100214.56;5035231;28;20442;-67
2023/03/15 00:28:16;;;;;;;19.13;1.47;;;;;;;2.50;92.13;100215.88;5035063;28;20550;-67
2023/03/15 00:30:43;;;;;;;7.53;1.60;;;;;;;2.52;91.65;100212.94;5035200;28;20526;-67
2023/03/15 00:33:12;;;;;;;5.83;0.83;;;;;;;2.45;92.36;100223.06;5035081;28;20526;-66
2023/03/15 00:35:42;;;;;;;7.90;1.40;;;;;;;2.50;90.99;100234.59;5034966;28;20483;-67
2023/03/15 00:38:09;;;;;;;7.23;0.87;;;;;;;2.47;91.86;100237.75;5034582;28;20506;-68
2023/03/15 00:40:36;;;;;;;4.27;0.73;;;;;;;2.46;91.26;100232.69;5034955;28;20439;-67
2023/03/15 00:43:03;;;;;;;7.67;1.60;;;;;;;2.48;91.81;100242.06;5034331;28;20457;-67
2023/03/15 00:45:30;;;;;;;4.97;0.70;;;;;;;2.53;91.98;100244.78;5034599;28;20443;-66
2023/03/15 00:47:56;;;;;;;5.87;1.20;;;;;;;2.54;92.46;100245.59;5034757;28;20553;-67
2023/03/15 00:50:24;;;;;;;8.90;1.50;;;;;;;2.48;92.13;100247.41;5034728;28;20539;-67
2023/03/15 00:52:52;;;;;;;5.10;1.17;;;;;;;2.49;93.61;100248.22;5034331;28;20435;-66
2023/03/15 00:55:20;;;;;;;6.40;1.00;;;;;;;2.49;92.39;100253.56;5034313;28;20569;-68
2023/03/15 00:57:47;;;;;;;10.93;0.90;;;;;;;2.50;91.23;100260.50;5034581;28;20455;-67
2023/03/15 01:00:17;;;;;;;13.63;1.20;;;;;;;2.45;93.37;100258.59;5034577;28;20439;-67
2023/03/15 01:02:43;;;;;;;8.50;0.83;;;;;;;2.47;92.59;100264.50;5034555;28;20553;-67
2023/03/15 01:05:10;;;;;;;5.87;0.97;;;;;;;2.49;91.34;100264.25;5034454;28;20439;-67
2023/03/15 01:07:37;;;;;;;5.07;0.90;;;;;;;2.41;91.97;100264.72;5034403;28;20462;-67
2023/03/15 01:10:06;;;;;;;7.10;0.80;;;;;;;2.45;93.01;100279.19;5034440;28;20470;-67
2023/03/15 01:12:34;;;;;;;7.67;0.93;;;;;;;2.45;92.81;100279.19;5034028;28;21016;-67
2023/03/15 01:15:01;;;;;;;6.90;1.33;;;;;;;2.41;93.25;100286.91;5034288;28;20482;-66
2023/03/15 01:17:28;;;;;;;8.53;0.80;;;;;;;2.31;92.60;100284.16;5034148;28;20554;-66
2023/03/15 01:19:54;;;;;;;8.80;1.33;;;;;;;2.36;93.26;100294.88;5033989;28;20954;-67
2023/03/15 01:22:21;;;;;;;6.47;0.90;;;;;;;2.31;93.22;100296.72;5034078;28;20478;-66
2023/03/15 01:24:48;;;;;;;5.50;0.90;;;;;;;2.31;93.36;100294.03;5034125;28;20526;-67
2023/03/15 01:27:16;;;;;;;6.40;1.00;;;;;;;2.26;93.25;100295.59;5033975;28;20473;-66
2023/03/15 01:29:42;;;;;;;12.57;1.00;;;;;;;2.25;94.24;100293.16;5033727;28;20439;-67
2023/03/15 01:32:09;;;;;;;5.30;0.87;;;;;;;2.26;94.80;100308.97;5033949;28;20474;-68
2023/03/15 01:34:36;;;;;;;6.40;0.80;;;;;;;2.25;93.54;100306.53;5033852;28;20867;-67
2023/03/15 01:37:03;;;;;;;6.73;1.37;;;;;;;2.21;94.19;100300.91;5033614;28;20489;-67
2023/03/15 01:39:30;;;;;;;9.83;1.20;;;;;;;2.20;93.91;100309.16;5033614;28;20420;-67
2023/03/15 01:41:56;;;;;;;5.23;1.17;;;;;;;2.17;95.61;100306.97;5033812;28;20447;-66
2023/03/15 01:44:44;;;;;;;5.10;0.80;;;;;;;2.13;94.96;100305.88;5033707;28;20522;-66
2023/03/15 01:47:12;;;;;;;8.67;1.07;;;;;;;2.10;94.58;100309.06;5033168;28;20474;-68
2023/03/15 01:49:38;;;;;;;8.50;1.80;;;;;;;2.03;95.49;100309.25;5033692;28;20447;-67
2023/03/15 01:52:08;;;;;;;17.53;1.23;;;;;;;2.04;95.92;100313.53;5033623;28;20450;-67
2023/03/15 01:54:41;;;;;;;6.60;0.80;;;;;;;2.03;96.14;100315.38;5032680;28;20800;-67
2023/03/15 01:57:11;;;;;;;6.00;0.93;;;;;;;2.08;95.64;100319.16;5033158;28;21000;-68
2023/03/15 01:59:44;;;;;;;5.13;0.60;;;;;;;2.10;94.78;100325.88;5033172;28;20534;-67
2023/03/15 02:02:13;;;;;;;4.37;0.67;;;;;;;2.08;95.13;100319.16;5033283;28;20936;-66
2023/03/15 02:04:45;;;;;;;8.00;1.30;;;;;;;2.03;95.91;100318.06;5033547;28;20553;-67
2023/03/15 02:07:15;;;;;;;5.27;1.00;;;;;;;1.99;95.44;100319.63;5033385;28;20467;-67
2023/03/15 02:09:47;;;;;;;6.30;0.90;;;;;;;2.01;95.78;100322.84;5033038;28;20988;-66
2023/03/15 02:12:13;;;;;;;4.23;0.67;;;;;;;2.00;95.46;100321.25;5033069;28;21008;-67
2023/03/15 02:14:42;;;;;;;5.40;0.80;;;;;;;2.04;94.09;100324.22;5033326;28;20451;-69
2023/03/15 02:17:09;;;;;;;9.13;1.53;;;;;;;2.00;93.62;100328.47;5033287;28;20487;-69
2023/03/15 02:19:45;;;;;;;9.50;1.10;;;;;;;1.95;94.12;100337.22;5032914;28;20826;-67
2023/03/15 02:22:22;;;;;;;7.60;0.90;;;;;;;1.94;95.45;100334.78;5033267;28;20431;-66
2023/03/15 02:24:56;;;;;;;5.60;1.13;;;;;;;1.99;94.15;100337.50;5033315;28;20453;-67
2023/03/15 02:27:28;;;;;;;11.57;1.17;;;;;;;1.97;95.35;100342.31;5033122;28;20462;-66
2023/03/15 02:29:55;;;;;;;4.50;0.63;;;;;;;1.97;95.24;100352.97;5033085;28;20416;-66
2023/03/15 02:32:21;;;;;;;4.50;0.50;;;;;;;1.93;95.20;100351.88;5033066;28;20449;-66
2023/03/15 02:34:48;;;;;;;9.63;1.80;;;;;;;2.00;94.97;100347.16;5033069;28;20439;-66
2023/03/15 02:37:15;;;;;;;8.10;1.03;;;;;;;1.97;95.78;100353.78;5032686;28;20501;-66
2023/03/15 02:39:41;;;;;;;6.50;1.40;;;;;;;1.97;95.71;100353.78;5033124;28;20485;-66
2023/03/15 02:42:08;;;;;;;6.87;1.07;;;;;;;1.94;95.22;100356.16;5032914;28;20445;-66
2023/03/15 02:44:39;;;;;;;5.63;1.23;;;;;;;1.96;95.82;100360.19;5032660;28;20888;-66
2023/03/15 02:47:10;;;;;;;4.80;0.80;;;;;;;2.02;95.16;100366.41;5032931;28;20554;-66
2023/03/15 02:49:40;;;;;;;5.03;0.77;;;;;;;2.01;93.98;100368.25;5032673;28;20471;-66
2023/03/15 02:52:08;;;;;;;10.97;1.00;;;;;;;2.03;94.12;100371.47;5032526;28;20424;-66
2023/03/15 02:54:35;;;;;;;9.70;1.50;;;;;;;2.02;94.07;100371.72;5032571;28;20895;-66
2023/03/15 02:57:02;;;;;;;6.57;0.83;;;;;;;2.01;94.13;100375.47;5032805;28;20865;-66
2023/03/15 02:59:29;;;;;;;8.83;1.43;;;;;;;1.99;93.83;100374.91;5032874;28;20534;-66
2023/03/15 03:01:57;;;;;;;9.80;1.03;;;;;;;1.97;94.53;100380.50;5032786;28;20443;-66
2023/03/15 03:04:24;;;;;;;8.77;0.97;;;;;;;1.91;94.29;100381.50;5032583;28;20431;-66
2023/03/15 03:06:50;;;;;;;6.60;1.23;;;;;;;1.94;95.85;100380.19;5035562;28;20490;-67
2023/03/15 03:09:17;;;;;;;6.70;1.07;;;;;;;1.89;96.13;100382.78;5036302;28;20963;-65
2023/03/15 03:11:44;;;;;;;6.63;0.80;;;;;;;1.91;96.63;100394.84;5036602;28;20451;-66
2023/03/15 03:14:12;;;;;;;11.43;1.40;;;;;;;1.99;96.03;100391.75;5036918;28;20445;-67
2023/03/15 03:16:39;;;;;;;5.03;0.73;;;;;;;2.04;95.84;100385.66;5036431;28;20577;-67
2023/03/15 03:19:07;;;;;;;7.33;1.40;;;;;;;2.01;95.51;100391.50;5036217;28;20443;-67
2023/03/15 03:21:34;;;;;;;5.23;0.90;;;;;;;2.08;96.91;100397.47;5036145;28;20550;-67
2023/03/15 03:24:00;;;;;;;8.23;1.87;;;;;;;2.17;96.19;100398.66;5036138;28;20941;-66
2023/03/15 03:26:31;;;;;;;9.43;1.03;;;;;;;2.21;94.62;100406.94;5036331;28;20478;-66
2023/03/15 03:28:58;;;;;;;4.67;0.70;;;;;;;2.17;92.58;100408.50;5036550;28;20454;-67
2023/03/15 03:31:27;;;;;;;12.93;1.00;;;;;;;2.13;93.87;100410.88;5035852;28;20983;-67
2023/03/15 03:33:55;;;;;;;17.80;1.23;;;;;;;2.20;93.05;100408.00;5036171;28;20449;-67
2023/03/15 03:36:23;;;;;;;5.27;0.90;;;;;;;2.13;93.70;100412.75;5035954;28;20898;-66
2023/03/15 03:38:50;;;;;;;8.20;1.30;;;;;;;2.10;93.09;100415.91;5035789;28;20471;-66
2023/03/15 03:41:17;;;;;;;5.23;1.20;;;;;;;2.10;94.64;100422.06;5035960;28;20446;-66
2023/03/15 03:43:44;;;;;;;6.83;1.10;;;;;;;2.13;93.60;100426.09;5035930;28;20450;-66
2023/03/15 03:46:10;;;;;;;9.20;0.93;;;;;;;2.15;93.13;100423.97;5035967;28;20439;-65
2023/03/15 03:48:37;;;;;;;4.53;0.93;;;;;;;2.11;92.84;100428.19;5036049;28;20503;-67
2023/03/15 03:51:04;;;;;;;5.70;1.00;;;;;;;2.04;93.22;100439.09;5035847;28;20514;-66
2023/03/15 03:53:32;;;;;;;6.03;1.23;;;;;;;2.06;92.94;100441.50;5035692;28;20443;-67
2023/03/15 03:55:59;;;;;;;5.80;0.93;;;;;;;2.06;92.65;100438.81;5035372;28;20577;-67
2023/03/15 03:58:25;;;;;;;5.73;1.07;;;;;;;2.00;94.26;100448.66;5035686;28;20566;-66
2023/03/15 04:00:53;;;;;;;4.23;0.60;;;;;;;2.02;93.71;100446.53;5035633;28;20871;-66
2023/03/15 04:03:26;;;;;;;13.13;1.83;;;;;;;1.98;93.40;100450.75;5035583;28;20439;-66
2023/03/15 04:05:52;;;;;;;5.63;1.10;;;;;;;1.96;93.68;100460.88;5035649;28;20840;-66
2023/03/15 04:08:19;;;;;;;6.17;0.97;;;;;;;1.95;93.75;100456.59;5035487;28;20462;-67
2023/03/15 04:10:50;;;;;;;7.03;1.07;;;;;;;1.96;95.19;100460.88;5035513;28;20461;-66
2023/03/15 04:13:16;;;;;;;8.40;1.50;;;;;;;1.92;95.14;100463.22;5035153;28;20443;-66
2023/03/15 04:15:43;;;;;;;5.53;0.90;;;;;;;1.87;95.24;100465.84;5035307;28;20538;-66
2023/03/15 04:18:09;;;;;;;4.97;0.80;;;;;;;1.84;96.94;100468.19;5034597;28;20546;-66
2023/03/15 04:20:36;;;;;;;11.50;1.27;;;;;;;1.77;98.11;100471.84;5035405;28;20454;-66
2023/03/15 04:23:02;;;;;;;7.60;0.90;;;;;;;1.79;97.66;100478.78;5035336;28;20485;-66
2023/03/15 04:25:29;;;;;;;5.43;0.80;;;;;;;1.80;97.35;100483.06;5035379;28;20554;-66
2023/03/15 04:28:01;;;;;;;6.00;1.10;;;;;;;1.78;96.52;100491.34;5035166;28;20473;-69
2023/03/15 04:30:29;;;;;;;7.73;1.10;;;;;;;1.74;97.86;100482.19;5035048;28;20439;-66
2023/03/15 04:32:58;;;;;;;13.97;1.00;;;;;;;1.77;97.20;100487.88;5035109;28;20505;-66
2023/03/15 04:35:26;;;;;;;11.00;1.50;;;;;;;1.72;96.82;100487.78;5035067;28;20440;-66
2023/03/15 04:40:18;;;;;;;5.00;1.00;;;;;;;1.68;96.47;100492.00;5045109;22;20561;-81
2023/03/15 04:42:44;;;;;;;6.80;0.93;;;;;;;1.65;95.84;100491.69;5039056;28;20212;-81
2023/03/15 04:45:12;;;;;;;11.33;1.33;;;;;;;1.61;95.88;100498.56;5039437;28;20466;-80
2023/03/15 04:47:40;;;;;;;9.20;1.27;;;;;;;1.57;96.76;100500.91;5038037;28;20477;-80
2023/03/15 04:50:08;;;;;;;5.33;1.27;;;;;;;1.58;96.54;100501.69;5038140;28;20466;-80
2023/03/15 04:52:35;;;;;;;6.77;1.63;;;;;;;1.55;96.36;100502.19;5037406;28;20896;-80
2023/03/15 04:55:01;;;;;;;6.20;1.00;;;;;;;1.51;96.26;100505.34;5037820;28;20538;-80
2023/03/15 04:57:28;;;;;;;4.17;0.70;;;;;;;1.51;96.46;100510.69;5037078;28;20984;-80
2023/03/15 04:59:55;;;;;;;4.80;0.90;;;;;;;1.52;96.43;100511.50;5037707;28;20439;-80
2023/03/15 05:02:23;;;;;;;4.90;1.00;;;;;;;1.52;96.03;100517.63;5037543;28;20450;-80
2023/03/15 05:04:50;;;;;;;17.63;1.70;;;;;;;1.50;96.45;100533.06;5037700;28;20446;-80
2023/03/15 05:07:17;;;;;;;10.23;1.33;;;;;;;1.45;97.91;100538.34;5037246;28;20997;-80
2023/03/15 05:09:45;;;;;;;5.40;0.87;;;;;;;1.43;97.28;100540.44;5038016;28;20525;-81
2023/03/15 05:12:12;;;;;;;4.93;1.00;;;;;;;1.47;96.99;100538.91;5037232;28;21051;-80
2023/03/15 05:14:39;;;;;;;9.50;1.17;;;;;;;1.52;96.95;100539.00;5037576;28;20537;-80
2023/03/15 05:17:06;;;;;;;5.77;0.87;;;;;;;1.60;96.52;100540.47;5036513;28;20495;-80
2023/03/15 05:19:34;;;;;;;8.20;1.10;;;;;;;1.66;96.96;100539.47;5036220;28;20802;-80
2023/03/15 05:22:01;;;;;;;6.10;1.50;;;;;;;1.65;97.21;100548.53;5036598;28;20501;-80
2023/03/15 05:24:27;;;;;;;6.80;0.77;;;;;;;1.72;96.78;100548.38;5036926;28;20522;-81
2023/03/15 05:26:54;;;;;;;8.33;1.63;;;;;;;1.73;97.58;100556.16;5036909;28;20466;-80
2023/03/15 05:29:22;;;;;;;8.83;1.33;;;;;;;1.74;97.77;100557.78;5036520;28;20530;-80
2023/03/15 05:31:51;;;;;;;5.30;1.03;;;;;;;1.79;95.14;100564.25;5036785;28;20474;-79
2023/03/15 05:34:18;;;;;;;4.80;1.10;;;;;;;1.79;95.57;100569.59;5035483;28;20451;-79
2023/03/15 05:36:46;;;;;;;7.53;1.13;;;;;;;1.89;95.76;100564.38;5039716;28;21014;-80
2023/03/15 05:39:15;;;;;;;7.00;1.43;;;;;;;1.95;95.21;100574.13;5042343;28;20875;-79
2023/03/15 05:41:42;;;;;;;5.30;0.97;;;;;;;1.97;94.10;100575.47;5043887;28;20457;-79
2023/03/15 05:44:08;;;;;;;6.63;1.47;;;;;;;1.96;94.05;100578.41;5044349;28;20487;-80
2023/03/15 05:46:35;;;;;;;6.23;1.40;;;;;;;1.99;93.77;100583.22;5038129;28;20501;-80
2023/03/15 05:49:03;;;;;;;5.93;1.10;;;;;;;1.97;94.00;100582.69;5034642;28;20528;-80
2023/03/15 05:51:29;;;;;;;8.33;1.17;;;;;;;1.96;94.25;100592.56;5034715;28;20451;-81
2023/03/15 05:53:57;;;;;;;5.73;1.53;;;;;;;1.95;95.30;100600.81;5034747;28;20447;-79
2023/03/15 05:56:24;;;;;;;7.30;1.27;;;;;;;1.98;94.63;100608.34;5034389;28;20589;-80
2023/03/15 05:58:50;;;;;;;7.00;1.13;;;;;;;1.97;94.95;100610.19;5036840;28;20546;-80
2023/03/15 06:01:17;;;;;;;6.00;1.27;;;;;;;2.00;94.83;100617.72;5036855;28;20482;-81
2023/03/15 06:03:44;;;;;;;4.80;0.97;;;;;;;2.05;94.41;100617.00;5036150;28;21047;-80
2023/03/15 06:06:10;;;;;;;8.43;1.37;;;;;;;2.14;93.56;100626.22;5036073;28;20483;-80
2023/03/15 06:08:37;;;;;;;9.77;1.03;;;;;;;2.22;93.63;100627.69;5036809;28;20503;-80
2023/03/15 06:11:05;;;;;;;7.60;1.03;;;;;;;2.31;93.56;100641.44;5036090;28;20519;-80
2023/03/15 06:13:32;;;;;;;8.00;1.10;;;;;;;2.38;92.30;100644.72;5035945;28;20451;-81
2023/03/15 06:15:58;;;;;;;9.73;0.97;;;;;;;2.45;92.93;100648.88;5036090;28;20529;-80
2023/03/15 06:18:25;;;;;;;10.53;1.30;;;;;;;2.47;93.67;100645.94;5036159;28;20541;-79
2023/03/15 06:20:52;;;;;;;8.87;1.33;;;;;;;2.54;93.60;100646.59;5036654;28;20530;-80
2023/03/15 06:23:18;;;;;;;5.30;1.07;;;;;;;2.57;92.73;100650.59;5036234;28;20470;-80
2023/03/15 06:25:45;;;;;;;8.70;1.13;;;;;;;2.49;94.98;100659.88;5035890;28;20529;-79
2023/03/15 06:28:13;;;;;;;13.03;1.37;;;;;;;2.47;96.18;100664.66;5035973;28;20881;-80
2023/03/15 06:30:40;;;;;;;8.93;1.43;;;;;;;2.48;98.40;100668.97;5035895;28;20505;-80
2023/03/15 06:33:07;;;;;;;7.03;1.37;;;;;;;2.55;97.59;100669.59;5036245;28;20807;-80
2023/03/15 06:35:34;;;;;;;13.30;1.33;;;;;;;2.52;98.37;100670.91;5036646;28;20808;-80
2023/03/15 06:38:00;;;;;;;5.10;1.33;;;;;;;2.58;98.15;100679.00;5035329;28;20483;-81
2023/03/15 06:40:27;;;;;;;9.77;2.03;;;;;;;2.63;97.42;100690.56;5036898;28;21067;-81
2023/03/15 06:43:04;;;;;;;8.70;1.07;;;;;;;2.57;99.34;100686.19;5041737;28;20489;-81
2023/03/15 06:45:32;;;;;;;10.67;1.47;;;;;;;2.64;99.20;100696.72;5039758;28;20427;-80
2023/03/15 06:47:59;;;;;;;5.70;0.97;;;;;;;2.72;99.67;100702.44;5040648;28;20549;-80
2023/03/15 06:50:26;;;;;;;9.47;1.60;;;;;;;2.78;99.53;100706.81;5039620;28;20446;-81
2023/03/15 06:52:52;;;;;;;9.97;1.40;;;;;;;2.92;99.31;100709.97;5039333;28;20439;-79
2023/03/15 06:55:19;;;;;;;6.53;1.20;;;;;;;2.99;98.99;100709.78;5039597;28;20438;-82
2023/03/15 06:57:46;;;;;;;8.17;2.00;;;;;;;3.04;98.20;100709.84;5038847;28;20482;-81
2023/03/15 07:00:16;;;;;;;4.80;1.13;;;;;;;3.13;97.62;100719.06;5039534;28;20511;-81
2023/03/15 07:02:44;;;;;;;6.77;1.20;;;;;;;3.08;97.64;100719.00;5039278;28;20837;-81
2023/03/15 07:05:11;;;;;;;8.87;1.20;;;;;;;3.18;97.17;100721.78;5039232;28;20485;-80
2023/03/15 07:07:37;;;;;;;9.23;1.30;;;;;;;3.19;96.14;100715.41;5039436;28;20459;-81
2023/03/15 07:10:04;;;;;;;5.03;1.00;;;;;;;3.17;96.32;100724.72;5039492;28;20860;-81
2023/03/15 07:12:31;;;;;;;6.30;1.43;;;;;;;3.23;96.34;100721.88;5040877;28;20474;-81
2023/03/15 07:14:58;;;;;;;6.60;1.07;;;;;;;3.34;96.37;100724.66;5041670;28;20442;-80
2023/03/15 07:17:24;;;;;;;4.70;0.90;;;;;;;3.48;95.50;100731.25;5041641;28;20490;-83
2023/03/15 07:19:52;;;;;;;11.10;1.13;;;;;;;3.56;95.18;100738.03;5041428;28;20475;-81
2023/03/15 07:22:21;;;;;;;6.27;1.37;;;;;;;3.52;94.25;100737.72;5041537;28;20490;-81
2023/03/15 07:24:47;;;;;;;9.30;1.00;;;;;;;3.53;93.17;100733.97;5042930;28;20439;-81
2023/03/15 07:27:14;;;;;;;6.60;1.30;;;;;;;3.56;93.61;100744.22;5040464;28;20455;-80
2023/03/15 07:29:41;;;;;;;6.70;1.57;;;;;;;3.57;92.95;100739.66;5040539;28;20533;-84
2023/03/15 07:32:08;;;;;;;8.00;1.53;;;;;;;3.58;92.96;100744.75;5041602;28;20478;-80
2023/03/15 07:34:37;;;;;;;5.30;1.10;;;;;;;3.62;91.50;100751.22;5041923;28;20439;-82
2023/03/15 07:37:05;;;;;;;8.43;1.23;;;;;;;3.63;91.11;100744.84;5042026;28;20486;-80
2023/03/15 07:39:32;;;;;;;5.17;0.90;;;;;;;3.68;90.93;100742.22;5041835;28;20451;-81
2023/03/15 07:41:59;;;;;;;11.70;2.00;;;;;;;3.65;91.49;100750.75;5045019;28;20467;-81
2023/03/15 07:44:26;;;;;;;5.40;1.00;;;;;;;3.66;90.82;100754.22;5041416;28;20802;-80
2023/03/15 07:46:53;;;;;;;5.97;1.47;;;;;;;3.73;90.17;100758.34;5039900;28;20454;-80
2023/03/15 07:49:20;;;;;;;11.63;1.60;;;;;;;3.84;89.78;100758.44;5038781;28;20443;-80
2023/03/15 07:51:47;;;;;;;5.07;0.90;;;;;;;3.94;88.69;100771.94;5038176;28;20447;-80
2023/03/15 07:54:15;;;;;;;8.90;1.83;;;;;;;4.00;88.28;100766.38;5038760;28;20447;-80
2023/03/15 07:56:41;;;;;;;11.27;1.90;;;;;;;4.07;88.27;100770.72;5039394;28;20436;-80
2023/03/15 07:59:08;;;;;;;11.37;2.00;;;;;;;4.10;87.94;100768.34;5039017;28;20451;-80
2023/03/15 08:01:35;;;;;;;7.53;1.90;;;;;;;4.13;86.76;100772.41;5038983;28;20454;-80
2023/03/15 08:04:02;;;;;;;9.07;2.03;;;;;;;4.15;85.73;100772.94;5037894;28;20432;-79
2023/03/15 08:06:28;;;;;;;8.10;1.90;;;;;;;4.19;86.24;100774.88;5038351;28;20485;-80
2023/03/15 08:08:55;;;;;;;7.77;1.43;;;;;;;4.15;86.04;100781.81;5038669;28;20468;-80
2023/03/15 08:11:23;;;;;;;5.70;1.53;;;;;;;4.16;85.79;100783.44;5039345;28;20455;-81
2023/03/15 08:13:49;;;;;;;8.17;1.50;;;;;;;4.19;85.16;100785.59;5038623;28;20544;-80
2023/03/15 08:16:16;;;;;;;12.67;1.60;;;;;;;4.19;86.27;100792.84;5038413;28;20501;-80
2023/03/15 08:18:43;;;;;;;11.13;1.80;;;;;;;4.21;85.42;100794.22;5038033;28;20570;-80
2023/03/15 08:21:09;;;;;;;7.77;1.53;;;;;;;4.28;84.94;100788.63;5037502;28;20451;-80
2023/03/15 08:23:36;;;;;;;10.13;2.67;;;;;;;4.37;84.71;100791.66;5038145;28;20874;-79
2023/03/15 08:26:03;;;;;;;6.23;2.00;;;;;;;4.46;83.77;100801.66;5038196;28;20494;-81
2023/03/15 08:28:31;;;;;;;6.73;2.47;;;;;;;4.45;83.73;100804.59;5038194;28;20517;-80
2023/03/15 08:30:57;;;;;;;9.87;2.07;;;;;;;4.41;83.90;100804.31;5038067;28;20893;-80
2023/03/15 08:33:24;;;;;;;7.77;2.47;;;;;;;4.47;83.38;100802.47;5038336;28;20451;-80
2023/03/15 08:35:54;;;;;;;9.23;1.87;;;;;;;4.48;81.48;100814.84;5039238;28;20810;-80
2023/03/15 08:38:20;;;;;;;8.10;2.10;;;;;;;4.53;80.50;100822.91;5039317;28;20479;-80
2023/03/15 08:40:47;;;;;;;10.27;2.20;;;;;;;4.43;80.82;100822.84;5038283;28;21000;-81
2023/03/15 08:43:14;;;;;;;8.80;2.00;;;;;;;4.36;81.26;100843.69;5038919;28;20539;-79
2023/03/15 08:45:44;;;;;;;7.03;1.60;;;;;;;4.29;79.69;100833.97;5038673;28;20855;-79
2023/03/15 08:48:13;;;;;;;6.53;1.73;;;;;;;4.27;78.83;100843.31;5037537;28;20486;-79
2023/03/15 08:50:39;;;;;;;12.40;2.20;;;;;;;4.21;79.43;100847.03;5037676;28;20455;-79
2023/03/15 08:53:06;;;;;;;11.10;2.73;;;;;;;4.17;79.33;100859.31;5036790;28;20948;-81
2023/03/15 08:55:33;;;;;;;7.30;2.07;;;;;;;4.04;80.24;100857.81;5037405;28;20448;-80
2023/03/15 08:58:00;;;;;;;10.60;2.20;;;;;;;4.13;80.03;100856.31;5037098;28;20572;-83
2023/03/15 09:00:27;;;;;;;6.20;1.83;;;;;;;4.25;80.34;100862.34;5036952;28;20439;-80
2023/03/15 09:02:55;;;;;;;7.60;2.30;;;;;;;4.24;80.17;100857.22;5037551;28;20530;-80
2023/03/15 09:05:25;;;;;;;6.13;1.80;;;;;;;4.30;79.78;100858.91;5038412;28;20530;-80
2023/03/15 09:07:52;;;;;;;7.17;1.63;;;;;;;4.26;80.12;100865.84;5039008;28;20515;-79
2023/03/15 09:10:20;;;;;;;4.93;1.30;;;;;;;4.39;80.07;100865.44;5037952;28;20444;-80
2023/03/15 09:12:49;;;;;;;4.80;1.17;;;;;;;4.48;79.13;100873.84;5038797;28;20534;-79
2023/03/15 09:15:16;;;;;;;5.23;1.50;;;;;;;4.57;76.29;100875.00;5037704;28;20957;-80
2023/03/15 09:17:43;;;;;;;7.10;1.57;;;;;;;4.55;74.49;100879.78;5038710;28;20499;-80
2023/03/15 09:20:15;;;;;;;5.07;1.07;;;;;;;4.65;75.21;100879.06;5040071;28;20505;-79
2023/03/15 09:22:42;;;;;;;9.07;1.00;;;;;;;4.72;74.45;100885.88;5040899;28;20471;-80
2023/03/15 09:25:09;;;;;;;5.53;1.50;;;;;;;4.82;73.88;100890.50;5042548;28;20478;-79
2023/03/15 09:27:37;;;;;;;9.27;1.40;;;;;;;4.83;74.85;100897.50;5040585;28;20523;-79
2023/03/15 09:30:04;;;;;;;7.60;1.60;;;;;;;4.81;73.25;100905.78;5041655;28;20816;-80
2023/03/15 09:32:34;;;;;;;8.67;2.13;;;;;;;4.83;74.64;100896.72;5040575;28;20887;-79
2023/03/15 09:35:01;;;;;;;11.90;1.47;;;;;;;4.94;73.91;100903.75;5040316;28;20451;-79
2023/03/15 09:37:29;;;;;;;8.13;1.43;;;;;;;5.07;74.36;100906.03;5038455;28;20513;-79
2023/03/15 09:39:56;;;;;;;9.13;2.00;;;;;;;5.09;74.65;100911.13;5040782;28;20455;-79
2023/03/15 09:42:28;;;;;;;5.33;1.33;;;;;;;5.14;74.99;100919.25;5038450;28;20447;-79
2023/03/15 09:45:05;;;;;;;7.53;1.60;;;;;;;5.24;72.47;100922.00;5039907;28;20424;-79
2023/03/15 09:47:40;;;;;;;5.40;0.93;;;;;;;5.23;72.95;100926.56;5037830;28;20918;-79
2023/03/15 09:50:14;;;;;;;7.07;1.87;;;;;;;5.30;72.92;100929.03;5036788;28;20429;-79
2023/03/15 09:52:46;;;;;;;15.10;2.00;;;;;;;5.28;70.86;100934.66;5036372;28;20412;-78
2023/03/15 09:55:16;;;;;;;5.70;1.30;;;;;;;5.27;73.26;100932.25;5035210;28;20502;-80
2023/03/15 09:57:48;;;;;;;7.00;1.33;;;;;;;5.37;73.82;100936.88;5036464;28;20585;-79
2023/03/15 10:00:20;;;;;;;4.70;1.00;;;;;;;5.38;73.27;100939.28;5038429;28;20432;-79
2023/03/15 10:02:55;;;;;;;8.30;1.20;;;;;;;5.46;71.83;100951.44;5035984;28;20424;-79
2023/03/15 10:05:31;;;;;;;5.77;0.90;;;;;;;5.37;73.14;100955.69;5035037;28;20435;-78
2023/03/15 10:07:59;;;;;;;7.63;1.57;;;;;;;5.51;73.01;100946.91;5034767;28;20545;-78
2023/03/15 10:10:33;;;;;;;5.80;1.20;;;;;;;5.58;73.96;100957.44;5034597;28;20462;-78
2023/03/15 10:13:13;;;;;;;6.33;1.23;;;;;;;5.69;71.81;100948.38;5034921;28;20862;-79
2023/03/15 10:15:50;;;;;;;6.33;1.50;;;;;;;5.68;73.02;100952.13;5033612;28;20482;-81
2023/03/15 10:18:33;;;;;;;12.30;1.40;;;;;;;5.66;73.16;100961.50;5034295;28;20522;-79
2023/03/15 10:21:05;;;;;;;5.50;1.37;;;;;;;5.67;71.75;100949.72;5036688;28;20495;-79
2023/03/15 10:23:44;;;;;;;6.43;1.37;;;;;;;5.66;71.05;100959.63;5037262;28;20428;-79
2023/03/15 10:26:15;;;;;;;7.13;1.77;;;;;;;5.44;72.41;100956.25;5039008;28;20493;-79
2023/03/15 10:28:43;;;;;;;6.40;1.60;;;;;;;5.45;73.96;100957.91;5037743;28;20526;-79
2023/03/15 10:31:14;;;;;;;5.40;1.30;;;;;;;5.67;73.15;100961.28;5037453;28;20446;-78
2023/03/15 10:33:42;;;;;;;5.20;1.10;;;;;;;5.73;69.38;100965.59;5037229;28;20426;-79
2023/03/15 10:36:15;;;;;;;12.63;1.37;;;;;;;5.72;68.97;100963.19;5036793;28;20459;-80
2023/03/15 10:38:43;;;;;;;6.40;1.40;;;;;;;5.68;69.20;100959.38;5036123;28;20996;-80
2023/03/15 10:41:12;;;;;;;5.73;1.00;;;;;;;5.71;68.57;100957.00;5035782;28;20481;-80
2023/03/15 10:43:40;;;;;;;6.93;1.27;;;;;;;5.80;68.32;100955.44;5037058;28;20443;-80
2023/03/15 10:46:10;;;;;;;5.83;1.40;;;;;;;6.02;69.80;100958.00;5035364;28;20512;-80
2023/03/15 10:48:39;;;;;;;13.60;0.90;;;;;;;6.23;69.03;100964.28;5035494;28;20459;-80
2023/03/15 10:51:14;;;;;;;5.40;1.57;;;;;;;6.36;67.30;100962.19;5036541;28;20452;-81
2023/03/15 10:53:53;;;;;;;6.80;1.50;;;;;;;6.50;67.34;100966.00;5036345;28;20793;-82
2023/03/15 10:56:26;;;;;;;5.30;0.83;;;;;;;6.72;64.45;100974.66;5035914;28;20428;-82
2023/03/15 10:58:57;;;;;;;5.97;0.83;;;;;;;6.70;63.76;100976.03;5036463;28;20501;-82
2023/03/15 11:01:27;;;;;;;5.20;1.10;;;;;;;6.76;64.41;100964.19;5036582;28;20434;-81
2023/03/15 11:04:06;;;;;;;9.90;1.17;;;;;;;6.77;63.00;100976.56;5038085;28;20427;-83
2023/03/15 11:06:41;;;;;;;5.57;1.10;;;;;;;6.81;63.68;100970.38;5039275;28;20439;-83
2023/03/15 11:09:11;;;;;;;7.50;1.07;;;;;;;7.11;63.27;100978.78;5037886;28;20467;-83
2023/03/15 11:11:53;;;;;;;5.47;1.40;;;;;;;7.07;61.68;100981.19;5037143;28;21011;-84
2023/03/15 11:14:20;;;;;;;9.73;0.93;;;;;;;6.96;62.38;100990.34;5038196;28;20435;-85
2023/03/15 11:16:49;;;;;;;11.70;1.20;;;;;;;6.79;61.79;100983.31;5038585;28;20436;-84
2023/03/15 11:19:20;;;;;;;5.33;0.90;;;;;;;6.56;61.97;100981.09;5039870;28;20553;-84
2023/03/15 11:21:49;;;;;;;13.63;1.97;;;;;;;6.23;62.50;100985.78;5041034;28;20886;-85
2023/03/15 11:24:27;;;;;;;4.77;0.70;;;;;;;6.25;63.78;100980.97;5041134;28;20467;-84
2023/03/15 11:26:55;;;;;;;5.10;0.80;;;;;;;6.61;61.81;100985.69;5042654;28;20453;-85
2023/03/15 11:29:28;;;;;;;5.80;0.90;;;;;;;6.88;60.22;100983.59;5046299;28;20488;-84
2023/03/15 11:31:56;;;;;;;6.70;1.13;;;;;;;7.45;60.88;100987.97;5046990;28;20435;-85
2023/03/15 11:34:35;;;;;;;10.20;1.63;;;;;;;8.61;58.90;100990.66;5047657;28;20470;-84
2023/03/15 11:37:05;;;;;;;5.20;1.30;;;;;;;8.81;56.08;100993.25;5047946;28;20438;-85
2023/03/15 11:39:44;;;;;;;4.70;0.97;;;;;;;8.92;55.52;100999.41;5050769;28;20514;-85